Time;durP1;ratioP1;P1;durP2;ratioP2;P2;SDS_P1;SDS_P2;PMS_P1;PMS_P2;Temp;Humidity;BMP_temperature;BMP_pressure;BME280_temperature;BME280_humidity;BME280_pressure;Samples;Min_cycle;Max_cycle;Signal;HPM_P1;HPM_P2
2022/01/19 00:00:51;;;;;;;3.42;3.10;;;;;;;-3.08;92.30;61687.34;6077563;23;20195;-75
2022/01/19 00:03:18;;;;;;;3.67;2.80;;;;;;;-3.05;91.63;61692.91;6076813;23;20171;-75
2022/01/19 00:05:45;;;;;;;3.42;2.95;;;;;;;-3.01;91.59;61697.50;6077730;23;20568;-75
2022/01/19 00:08:17;;;;;;;5.47;2.58;;;;;;;-3.06;91.65;61694.91;6078061;23;20401;-74
2022/01/19 00:10:43;;;;;;;3.15;2.80;;;;;;;-3.40;91.57;61652.19;6078068;23;20248;-74
2022/01/19 00:13:11;;;;;;;4.93;3.17;;;;;;;-3.17;92.11;61678.16;6079261;23;20176;-75
2022/01/19 00:15:38;;;;;;;5.20;2.72;;;;;;;-3.06;91.69;61692.41;6077791;23;20200;-75
2022/01/19 00:18:05;;;;;;;5.30;3.17;;;;;;;-3.09;91.09;61688.84;6076916;23;20424;-75
2022/01/19 00:20:34;;;;;;;6.55;4.07;;;;;;;-3.13;91.00;61687.75;6077135;23;20504;-75
2022/01/19 00:23:02;;;;;;;6.00;3.35;;;;;;;-3.09;90.31;61684.34;6077780;23;20181;-75
2022/01/19 00:25:30;;;;;;;4.03;2.75;;;;;;;-3.10;89.73;61687.78;6077380;23;20201;-75
2022/01/19 00:27:57;;;;;;;4.15;3.53;;;;;;;-3.17;89.97;61681.16;6076363;23;20233;-74
2022/01/19 00:30:26;;;;;;;4.35;3.03;;;;;;;-3.09;89.30;61683.84;6077604;23;20240;-75
2022/01/19 00:32:53;;;;;;;15.10;3.30;;;;;;;-3.12;89.31;61685.78;6079041;23;20183;-75
2022/01/19 00:35:20;;;;;;;6.10;3.38;;;;;;;-3.10;89.81;61682.81;6078057;23;20508;-75
2022/01/19 00:37:47;;;;;;;3.38;2.08;;;;;;;-3.15;90.39;61682.69;6077784;23;20448;-76
2022/01/19 00:40:14;;;;;;;5.68;3.20;;;;;;;-3.15;90.92;61678.22;6079221;23;20196;-75
2022/01/19 00:42:44;;;;;;;5.65;3.05;;;;;;;-3.16;91.51;61684.16;6078623;23;20177;-75
2022/01/19 00:45:11;;;;;;;4.97;3.85;;;;;;;-3.15;91.77;61680.72;6079562;23;20504;-74
2022/01/19 00:47:38;;;;;;;7.50;3.03;;;;;;;-3.17;91.80;61680.66;6078643;23;20169;-75
2022/01/19 00:50:08;;;;;;;3.88;3.05;;;;;;;-3.20;92.43;61673.13;6078752;23;20240;-75
2022/01/19 00:52:36;;;;;;;4.28;3.47;;;;;;;-3.13;92.53;61682.75;6079206;23;20225;-75
2022/01/19 00:55:05;;;;;;;9.48;3.42;;;;;;;-3.10;92.13;61685.81;6078421;23;20197;-75
2022/01/19 00:57:31;;;;;;;5.57;3.03;;;;;;;-3.07;92.14;61688.38;6079846;23;20193;-76
2022/01/19 01:00:00;;;;;;;3.65;3.10;;;;;;;-3.16;92.16;61689.66;6079465;23;20207;-76
2022/01/19 01:02:27;;;;;;;3.67;3.38;;;;;;;-3.20;92.98;61680.59;6079216;23;20224;-76
2022/01/19 01:04:54;;;;;;;4.85;2.80;;;;;;;-3.23;93.54;61680.03;6078114;23;20222;-76
2022/01/19 01:07:21;;;;;;;5.78;3.58;;;;;;;-3.17;93.55;61683.13;6079515;23;20377;-75
2022/01/19 01:09:49;;;;;;;6.70;3.40;;;;;;;-3.18;93.71;61677.66;6080839;23;20197;-75
2022/01/19 01:12:22;;;;;;;3.85;3.20;;;;;;;-3.23;94.10;61670.06;6079800;23;20200;-75
2022/01/19 01:20:20;;;;;;;4.85;3.00;;;;;;;-3.30;95.66;61662.41;6078841;23;20251;-74
2022/01/19 01:22:47;;;;;;;3.40;3.08;;;;;;;-3.42;95.63;61650.66;6078853;23;20177;-75
2022/01/19 01:25:14;;;;;;;5.28;3.38;;;;;;;-3.31;95.30;61668.84;6079729;23;20264;-75
2022/01/19 01:27:41;;;;;;;10.02;4.20;;;;;;;-3.35;95.02;61654.81;6078902;23;20177;-74
2022/01/19 01:30:09;;;;;;;6.18;3.65;;;;;;;-3.44;95.47;61656.06;6079117;23;20544;-75
2022/01/19 01:32:38;;;;;;;5.88;3.60;;;;;;;-3.38;94.83;61656.72;6078820;23;20173;-76
2022/01/19 01:35:05;;;;;;;3.28;2.78;;;;;;;-3.44;95.14;61648.63;6078404;23;20224;-75
2022/01/19 01:37:33;;;;;;;4.30;3.10;;;;;;;-3.42;95.06;61650.66;6079023;23;20169;-75
2022/01/19 01:40:01;;;;;;;4.85;3.17;;;;;;;-3.47;95.66;61647.53;6078289;23;20212;-75
2022/01/19 01:42:28;;;;;;;8.85;3.58;;;;;;;-3.51;95.64;61643.94;6078697;23;20449;-75
2022/01/19 01:44:59;;;;;;;8.38;2.72;;;;;;;-3.49;95.75;61643.00;6079989;23;20212;-74
2022/01/19 01:47:27;;;;;;;9.52;2.72;;;;;;;-3.48;95.45;61647.00;6079447;23;20169;-75
2022/01/19 01:55:25;;;;;;;3.85;2.97;;;;;;;-3.41;93.86;61651.16;6079024;23;20406;-75
2022/01/19 01:57:52;;;;;;;3.33;2.67;;;;;;;-3.38;93.47;61659.22;6079458;23;20184;-76
2022/01/19 02:00:22;;;;;;;4.03;3.08;;;;;;;-3.47;92.80;61645.56;6078120;23;20212;-75
2022/01/19 02:02:50;;;;;;;3.35;2.30;;;;;;;-3.43;91.65;61656.59;6079377;23;20177;-75
2022/01/19 02:05:21;;;;;;;3.95;2.63;;;;;;;-3.40;90.86;61649.69;6079237;23;20193;-75
2022/01/19 02:08:01;;;;;;;5.25;2.65;;;;;;;-3.26;89.08;61674.44;6078212;23;20164;-74
2022/01/19 02:10:36;;;;;;;3.03;1.95;;;;;;;-3.29;88.67;61663.41;6079504;23;20197;-75
2022/01/19 02:16:10;;;;;;;3.95;2.63;;;;;;;-3.30;88.70;61664.88;6086237;23;20532;-75
2022/01/19 02:21:41;;;;;;;3.50;2.03;;;;;;;-3.28;88.78;61664.44;6022434;23;20184;-74
2022/01/19 02:24:12;;;;;;;5.20;2.80;;;;;;;-3.28;89.00;61672.44;6080400;23;20204;-75
2022/01/19 02:26:52;;;;;;;3.33;2.30;;;;;;;-3.25;88.91;61670.50;6078008;23;20165;-75
2022/01/19 02:29:45;;;;;;;2.78;2.08;;;;;;;-3.26;88.95;61668.97;6078566;23;20192;-75
2022/01/19 02:40:25;;;;;;;3.22;2.78;;;;;;;-3.26;87.63;61669.47;6078083;23;20444;-75
2022/01/19 02:43:03;;;;;;;2.40;2.17;;;;;;;-3.25;87.30;61670.00;6078302;23;20180;-76
2022/01/19 02:50:59;;;;;;;3.70;2.28;;;;;;;-3.20;86.36;61675.09;6079227;23;20220;-75
2022/01/19 02:53:28;;;;;;;3.30;2.42;;;;;;;-3.27;86.28;61670.44;6078067;23;20192;-75
2022/01/19 02:55:54;;;;;;;2.42;2.22;;;;;;;-3.18;85.78;61677.16;6078522;23;20236;-74
2022/01/19 02:58:23;;;;;;;3.55;2.08;;;;;;;-3.11;85.27;61684.28;6078518;23;20244;-75
2022/01/19 03:09:12;;;;;;;4.30;2.30;;;;;;;-3.19;85.34;61684.09;6077711;23;20243;-75
2022/01/19 03:11:39;;;;;;;2.15;2.05;;;;;;;-3.19;85.81;61678.63;6077016;23;20477;-76
2022/01/19 03:14:08;;;;;;;2.65;2.42;;;;;;;-3.18;86.20;61682.13;6077704;23;20204;-76
2022/01/19 03:16:35;;;;;;;3.67;2.17;;;;;;;-3.17;85.69;61680.66;6077972;23;20177;-76
2022/01/19 03:19:03;;;;;;;2.92;1.85;;;;;;;-3.14;85.53;61681.72;6077324;23;20580;-75
2022/01/19 03:21:30;;;;;;;2.80;2.55;;;;;;;-3.15;85.67;61680.19;6077777;23;20193;-75
2022/01/19 03:23:57;;;;;;;5.15;2.33;;;;;;;-3.17;85.28;61678.69;6077478;23;20239;-75
2022/01/19 03:26:26;;;;;;;3.47;2.15;;;;;;;-3.09;84.54;61686.84;6077075;23;20188;-75
2022/01/19 03:28:53;;;;;;;2.97;2.50;;;;;;;-3.09;84.78;61694.31;6077657;23;20189;-76
2022/01/19 03:31:20;;;;;;;3.75;2.58;;;;;;;-3.09;85.22;61678.88;6076171;23;20481;-75
2022/01/19 03:33:46;;;;;;;2.75;2.00;;;;;;;-3.04;85.25;61696.94;6077058;23;20184;-75
2022/01/19 03:36:13;;;;;;;4.93;2.00;;;;;;;-3.10;85.76;61683.34;6078130;23;20391;-76
2022/01/19 03:38:40;;;;;;;4.85;2.40;;;;;;;-3.09;86.16;61686.34;6076515;23;20477;-75
2022/01/19 03:41:07;;;;;;;8.15;2.50;;;;;;;-3.14;86.77;61686.22;6077998;23;20437;-75
2022/01/19 03:43:36;;;;;;;3.08;2.28;;;;;;;-3.11;87.25;61687.31;6078228;23;20205;-76
2022/01/19 03:46:12;;;;;;;2.38;2.10;;;;;;;-3.11;87.41;61689.78;6077419;23;20197;-75
2022/01/19 03:48:44;;;;;;;3.00;2.30;;;;;;;-3.12;87.28;61683.78;6076919;23;20160;-75
2022/01/19 03:51:12;;;;;;;2.53;2.28;;;;;;;-3.13;87.51;61680.28;6077034;23;20189;-76
2022/01/19 03:53:39;;;;;;;5.75;2.75;;;;;;;-3.10;87.27;61690.28;6077947;23;20179;-77
2022/01/19 03:56:06;;;;;;;4.07;2.85;;;;;;;-3.12;86.86;61691.25;6077632;23;20648;-75
2022/01/19 03:58:35;;;;;;;6.38;2.60;;;;;;;-3.09;86.86;61683.84;6076453;23;20181;-76
2022/01/19 04:01:03;;;;;;;4.20;2.40;;;;;;;-3.11;86.72;61679.31;6077165;23;20217;-76
2022/01/19 04:03:44;;;;;;;3.80;2.42;;;;;;;-3.02;86.58;61695.97;6077779;23;20395;-75
2022/01/19 04:06:18;;;;;;;3.10;2.78;;;;;;;-3.04;86.40;61688.97;6076586;23;20254;-76
2022/01/19 04:08:45;;;;;;;3.72;2.35;;;;;;;-3.17;87.20;61673.19;6077354;23;20173;-75
2022/01/19 04:11:13;;;;;;;2.35;2.17;;;;;;;-3.16;87.31;61684.16;6079914;23;20177;-75
2022/01/19 04:14:21;;;;;;;5.72;2.90;;;;;;;-3.19;87.28;61674.13;6079794;23;20208;-74
2022/01/19 04:16:45;;;;;;;13.85;3.40;;;;;;;-3.18;87.23;61674.66;6078651;23;20207;-76
2022/01/19 04:19:22;;;;;;;3.50;2.67;;;;;;;-3.13;87.23;61679.75;6079208;23;20255;-75
2022/01/19 04:21:49;;;;;;;2.45;2.15;;;;;;;-3.09;87.10;61691.31;6079114;23;20179;-76
2022/01/19 04:24:16;;;;;;;5.43;3.30;;;;;;;-3.21;87.13;61676.56;6078475;23;20197;-75
2022/01/19 04:26:43;;;;;;;3.05;2.75;;;;;;;-3.19;86.81;61681.09;6079657;23;20220;-75
2022/01/19 04:29:12;;;;;;;3.50;2.60;;;;;;;-3.14;86.88;61683.72;6079281;23;20200;-74
2022/01/19 04:31:39;;;;;;;2.65;2.45;;;;;;;-3.08;86.52;61684.88;6078750;23;20229;-75
2022/01/19 04:34:07;;;;;;;3.80;2.15;;;;;;;-3.10;86.24;61683.34;6078186;23;20169;-75
2022/01/19 04:36:48;;;;;;;4.43;2.65;;;;;;;-3.10;86.05;61690.28;6079057;23;20175;-74
2022/01/19 04:43:46;;;;;;;3.83;3.20;;;;;;;-3.11;85.86;61687.31;6078593;23;20200;-74
2022/01/19 04:45:19;;;;;;;8.35;3.17;;;;;;;-3.04;84.96;61698.91;6047249;23;20196;-73
2022/01/19 04:48:13;;;;;;;5.00;2.92;;;;;;;-3.10;85.76;61682.81;6078951;23;20180;-75
2022/01/19 05:01:52;;;;;;;5.13;2.95;;;;;;;-3.13;86.43;61685.25;6078498;23;20391;-74
2022/01/19 05:04:29;;;;;;;4.00;2.72;;;;;;;-3.04;86.40;61696.44;6079416;23;20235;-74
2022/01/19 05:13:50;;;;;;;5.55;2.90;;;;;;;-3.12;86.24;61688.75;6083927;23;20175;-74
2022/01/19 05:16:17;;;;;;;2.53;2.33;;;;;;;-3.10;86.42;61685.81;6081227;23;20397;-74
2022/01/19 05:18:45;;;;;;;7.72;2.67;;;;;;;-3.09;86.67;61688.84;6077599;23;20173;-73
2022/01/19 05:21:12;;;;;;;4.22;2.75;;;;;;;-3.07;86.83;61688.38;6079260;23;20259;-73
2022/01/19 05:23:39;;;;;;;3.28;2.85;;;;;;;-3.10;86.52;61685.81;6078276;23;20169;-74
2022/01/19 05:26:07;;;;;;;8.90;3.72;;;;;;;-3.13;86.79;61680.28;6076905;23;20196;-75
2022/01/19 05:28:34;;;;;;;4.88;3.40;;;;;;;-3.11;87.00;61686.78;6077539;23;20173;-76
2022/01/19 05:31:01;;;;;;;5.25;3.00;;;;;;;-3.14;87.45;61686.72;6079302;23;20197;-76
2022/01/19 05:33:28;;;;;;;8.23;3.15;;;;;;;-3.20;87.55;61680.06;6079426;23;20408;-75
2022/01/19 05:35:57;;;;;;;2.58;2.38;;;;;;;-3.22;88.10;61673.06;6078004;23;20259;-76
2022/01/19 05:38:23;;;;;;;3.55;3.25;;;;;;;-3.23;88.79;61672.03;6078445;23;20169;-76
2022/01/19 05:40:50;;;;;;;4.60;2.60;;;;;;;-3.29;89.63;61666.41;6077960;23;20223;-76
2022/01/19 05:43:18;;;;;;;3.78;2.28;;;;;;;-3.23;90.14;61675.03;6077868;23;20173;-75
2022/01/19 05:45:45;;;;;;;7.50;3.72;;;;;;;-3.21;91.07;61672.09;6077789;23;20196;-76
2022/01/19 05:48:12;;;;;;;5.22;3.25;;;;;;;-3.23;92.22;61670.06;6078541;23;20176;-76
2022/01/19 05:50:39;;;;;;;3.22;2.90;;;;;;;-3.26;93.51;61669.47;6078991;23;20200;-75
2022/01/19 05:53:08;;;;;;;4.57;3.45;;;;;;;-3.19;93.95;61681.09;6078890;23;20173;-75
2022/01/19 05:55:34;;;;;;;7.57;3.47;;;;;;;-3.20;94.49;61672.59;6077602;23;20426;-76
2022/01/19 05:58:01;;;;;;;3.33;3.00;;;;;;;-3.27;94.86;61670.44;6078633;23;20208;-76
2022/01/19 06:00:28;;;;;;;4.85;3.40;;;;;;;-3.20;95.26;61672.59;6078280;23;20208;-75
2022/01/19 06:02:55;;;;;;;3.90;2.55;;;;;;;-3.23;95.41;61677.53;6078289;23;20176;-76
2022/01/19 06:05:22;;;;;;;3.95;3.55;;;;;;;-3.35;96.33;61667.25;6079572;23;20192;-76
2022/01/19 06:07:49;;;;;;;7.05;3.15;;;;;;;-3.37;96.82;61660.22;6079631;23;20177;-76
2022/01/19 06:12:58;;;;;;;11.15;4.03;;;;;;;-3.23;95.95;61677.53;6078527;23;20160;-77
2022/01/19 06:15:25;;;;;;;6.20;3.75;;;;;;;-3.24;95.32;61668.50;6079858;23;20244;-76
2022/01/19 06:17:52;;;;;;;6.53;3.72;;;;;;;-3.17;94.69;61675.66;6078946;23;20177;-76
2022/01/19 06:20:19;;;;;;;4.45;2.63;;;;;;;-3.15;94.87;61680.72;6079168;23;20215;-76
2022/01/19 06:22:46;;;;;;;5.88;2.92;;;;;;;-3.05;94.98;61687.94;6078943;23;20235;-77
2022/01/19 06:25:13;;;;;;;5.78;3.65;;;;;;;-3.02;94.65;61691.00;6078769;23;20251;-77
2022/01/19 06:27:41;;;;;;;7.13;4.03;;;;;;;-3.00;94.36;61701.00;6079414;23;20260;-75
2022/01/19 06:30:09;;;;;;;5.15;3.83;;;;;;;-3.02;95.66;61694.00;6079571;23;20413;-77
2022/01/19 06:32:36;;;;;;;6.75;4.18;;;;;;;-3.04;95.93;61696.44;6079181;23;20232;-76
2022/01/19 06:35:03;;;;;;;11.00;3.58;;;;;;;-2.94;95.78;61702.19;6078342;23;20200;-76
2022/01/19 06:37:30;;;;;;;9.25;4.00;;;;;;;-2.82;95.46;61711.44;6082241;23;20182;-76
2022/01/19 06:39:57;;;;;;;9.45;4.25;;;;;;;-2.87;95.65;61709.34;6090060;23;20521;-76
2022/01/19 06:42:24;;;;;;;9.10;3.80;;;;;;;-2.85;95.94;61716.34;6083931;23;20179;-75
2022/01/19 06:44:52;;;;;;;8.27;4.70;;;;;;;-2.77;95.45;61716.53;6079300;23;20221;-76
2022/01/19 06:47:19;;;;;;;4.72;3.15;;;;;;;-2.69;94.84;61727.19;6077601;23;20231;-76
2022/01/19 06:49:46;;;;;;;6.07;3.72;;;;;;;-2.70;94.28;61726.19;6077851;23;20197;-76
2022/01/19 06:52:13;;;;;;;9.85;4.65;;;;;;;-2.66;93.86;61733.25;6078026;23;20173;-76
2022/01/19 06:54:40;;;;;;;4.13;3.28;;;;;;;-2.66;93.74;61725.78;6077585;23;20252;-76
2022/01/19 06:57:07;;;;;;;4.57;3.97;;;;;;;-2.58;93.45;61733.97;6077553;23;20172;-76
2022/01/19 06:59:34;;;;;;;6.40;3.72;;;;;;;-2.54;93.19;61743.03;6077919;23;20244;-77
2022/01/19 07:02:03;;;;;;;10.32;4.40;;;;;;;-2.39;92.86;61763.38;6078933;23;20177;-76
2022/01/19 07:04:30;;;;;;;5.60;3.42;;;;;;;-2.31;92.82;61760.56;6077881;23;20197;-76
2022/01/19 07:06:58;;;;;;;9.57;4.07;;;;;;;-2.12;91.53;61782.47;6077154;23;20184;-76
2022/01/19 07:09:25;;;;;;;10.95;4.43;;;;;;;-1.96;90.48;61796.84;6078038;23;20192;-76
2022/01/19 07:11:52;;;;;;;8.27;4.35;;;;;;;-2.07;91.02;61793.06;6078183;23;20432;-77
2022/01/19 07:14:19;;;;;;;11.93;4.45;;;;;;;-1.80;89.19;61815.72;6078058;23;20194;-75
2022/01/19 07:16:46;;;;;;;8.88;4.28;;;;;;;-1.87;88.91;61810.53;6077597;23;20187;-76
2022/01/19 07:19:15;;;;;;;7.13;4.43;;;;;;;-1.86;88.59;61814.03;6078174;23;20201;-75
2022/01/19 07:21:42;;;;;;;3.30;2.92;;;;;;;-1.83;87.19;61812.13;6077802;23;20426;-76
2022/01/19 07:24:08;;;;;;;6.68;3.88;;;;;;;-1.65;86.01;61830.53;6076662;23;20263;-76
2022/01/19 07:26:35;;;;;;;8.63;3.78;;;;;;;-1.62;85.32;61836.63;6077836;23;20221;-76
2022/01/19 07:29:02;;;;;;;9.50;3.55;;;;;;;-1.30;83.99;61869.38;6077525;23;20188;-76
2022/01/19 07:31:29;;;;;;;8.05;4.30;;;;;;;-0.99;82.80;61902.56;6078694;23;20369;-75
2022/01/19 07:33:56;;;;;;;7.32;3.72;;;;;;;-1.10;81.40;61893.81;6078221;23;20191;-75
2022/01/19 07:36:24;;;;;;;5.55;3.35;;;;;;;-1.11;80.50;61887.78;6080205;23;20168;-77
2022/01/19 07:38:51;;;;;;;4.15;3.75;;;;;;;-1.07;80.51;61892.38;6078010;23;20180;-76
2022/01/19 07:41:19;;;;;;;9.10;4.68;;;;;;;-1.14;80.54;61879.72;6078730;23;20204;-75
2022/01/19 07:43:47;;;;;;;7.68;3.20;;;;;;;-1.41;80.48;61855.09;6077887;23;20221;-77
2022/01/19 07:46:16;;;;;;;6.35;4.35;;;;;;;-1.39;80.50;61862.66;6079242;23;20169;-81
2022/01/19 07:48:43;;;;;;;4.00;3.40;;;;;;;-1.57;81.67;61841.22;6080343;23;20173;-77
2022/01/19 07:51:10;;;;;;;4.13;3.55;;;;;;;-1.70;83.37;61827.91;6083154;23;20256;-78
2022/01/19 07:53:39;;;;;;;12.85;4.13;;;;;;;-1.63;83.07;61833.09;6080282;23;20185;-77
2022/01/19 07:56:07;;;;;;;7.18;4.95;;;;;;;-1.62;82.08;61834.13;6080900;23;20185;-77
2022/01/19 07:58:33;;;;;;;10.35;7.25;;;;;;;-1.60;81.70;61841.16;6079115;23;20181;-76
2022/01/19 08:01:00;;;;;;;8.30;4.45;;;;;;;-1.53;82.31;61842.81;6077833;23;20208;-78
2022/01/19 08:03:28;;;;;;;5.57;2.78;;;;;;;-1.58;82.18;61835.22;6079261;23;20216;-77
2022/01/19 08:05:55;;;;;;;3.85;3.30;;;;;;;-1.62;82.22;61834.13;6078841;23;20203;-76
2022/01/19 08:08:22;;;;;;;7.75;4.47;;;;;;;-1.55;82.57;61843.78;6078345;23;20165;-78
2022/01/19 08:10:50;;;;;;;3.90;2.95;;;;;;;-1.54;82.16;61844.81;6077945;23;20521;-77
2022/01/19 08:13:18;;;;;;;6.30;3.90;;;;;;;-1.36;80.99;61865.72;6078183;23;20173;-77
2022/01/19 08:15:45;;;;;;;5.97;3.60;;;;;;;-1.41;80.75;61858.09;6076866;23;20256;-78
2022/01/19 08:18:11;;;;;;;10.48;3.70;;;;;;;-1.40;80.86;61854.13;6077750;23;20401;-77
2022/01/19 08:20:42;;;;;;;6.57;3.45;;;;;;;-1.46;81.28;61852.47;6078398;23;20256;-77
2022/01/19 08:23:08;;;;;;;3.05;2.85;;;;;;;-1.42;79.26;61854.59;6077960;23;20220;-77
2022/01/19 08:25:35;;;;;;;3.60;3.08;;;;;;;-1.26;78.31;61870.97;6077685;23;20211;-76
2022/01/19 08:28:04;;;;;;;3.75;3.42;;;;;;;-1.22;77.80;61874.53;6077179;23;20485;-77
2022/01/19 08:30:31;;;;;;;5.40;2.85;;;;;;;-1.36;78.96;61860.72;6077608;23;20245;-77
2022/01/19 08:32:58;;;;;;;4.50;2.70;;;;;;;-1.50;78.78;61850.91;6077928;23;20173;-77
2022/01/19 08:35:25;;;;;;;6.95;3.50;;;;;;;-1.46;78.88;61852.47;6078420;23;20231;-76
2022/01/19 08:37:52;;;;;;;7.65;3.22;;;;;;;-1.25;77.48;61873.97;6077598;23;20195;-77
2022/01/19 08:40:25;;;;;;;8.50;3.50;;;;;;;-1.23;76.64;61874.03;6079201;23;20423;-78
2022/01/19 08:42:52;;;;;;;5.22;2.97;;;;;;;-1.14;76.64;61882.75;6080412;23;20165;-77
2022/01/19 08:45:21;;;;;;;10.85;3.45;;;;;;;-1.22;76.99;61877.03;6078453;23;20222;-77
2022/01/19 08:47:48;;;;;;;4.20;2.78;;;;;;;-1.09;76.87;61892.34;6078357;23;20176;-77
2022/01/19 08:50:17;;;;;;;6.45;3.67;;;;;;;-0.96;74.60;61908.13;6079187;23;20196;-77
2022/01/19 08:52:45;;;;;;;3.88;3.10;;;;;;;-0.74;74.11;61930.69;6078645;23;20172;-76
2022/01/19 08:55:12;;;;;;;9.68;3.70;;;;;;;-0.67;73.09;61933.34;6077956;23;20223;-77
2022/01/19 08:57:39;;;;;;;3.08;2.08;;;;;;;-0.91;71.70;61911.28;6079766;23;20187;-78
2022/01/19 09:00:09;;;;;;;8.60;4.32;;;;;;;-0.78;72.09;61924.59;6080881;23;20188;-78
2022/01/19 09:02:37;;;;;;;5.75;3.53;;;;;;;-0.65;70.18;61929.88;6080535;23;20165;-77
2022/01/19 09:05:06;;;;;;;5.20;2.80;;;;;;;-0.62;69.97;61935.47;6080943;23;20452;-77
2022/01/19 09:07:33;;;;;;;3.38;3.08;;;;;;;-0.62;68.12;61940.97;6083361;23;20513;-79
2022/01/19 09:10:00;;;;;;;7.53;2.95;;;;;;;-0.39;67.78;61962.03;6081601;23;20227;-78
2022/01/19 09:12:27;;;;;;;4.07;3.10;;;;;;;-0.56;67.92;61946.59;6082117;23;20188;-77
2022/01/19 09:14:54;;;;;;;4.30;1.77;;;;;;;-1.05;68.70;61891.94;6082163;23;20204;-78
2022/01/19 09:17:21;;;;;;;4.28;3.83;;;;;;;-0.86;70.62;61913.38;6082705;23;20172;-78
2022/01/19 09:19:49;;;;;;;6.07;2.95;;;;;;;-0.82;70.27;61918.00;6082735;23;20197;-78
2022/01/19 09:22:16;;;;;;;3.17;2.88;;;;;;;-0.68;69.44;61926.81;6081728;23;20211;-78
2022/01/19 09:24:44;;;;;;;7.78;3.17;;;;;;;-0.52;67.13;61951.19;6080095;23;20256;-77
2022/01/19 09:27:13;;;;;;;3.38;3.10;;;;;;;-0.53;68.02;61949.66;6079353;23;20177;-78
2022/01/19 09:29:43;;;;;;;7.13;3.25;;;;;;;-0.27;66.15;61971.81;6079242;23;20260;-77
2022/01/19 09:32:11;;;;;;;2.60;2.35;;;;;;;-0.14;65.15;61989.63;6079447;23;20177;-77
2022/01/19 09:34:39;;;;;;;7.72;4.10;;;;;;;-0.21;66.46;61977.97;6079806;23;20286;-76
2022/01/19 09:37:08;;;;;;;5.35;3.13;;;;;;;0.00;64.82;61996.47;6079743;23;20179;-77
2022/01/19 09:39:35;;;;;;;5.60;2.28;;;;;;;-0.04;65.14;61999.88;6078571;23;20528;-78
2022/01/19 09:42:02;;;;;;;7.45;4.20;;;;;;;-0.24;66.60;61971.88;6079071;23;20225;-77
2022/01/19 09:44:29;;;;;;;2.33;2.00;;;;;;;-0.38;66.11;61958.03;6079877;23;20197;-77
2022/01/19 09:46:56;;;;;;;9.35;4.78;;;;;;;-0.45;66.57;61955.38;6080141;23;20208;-77
2022/01/19 09:49:24;;;;;;;8.48;3.33;;;;;;;-0.11;66.58;61992.72;6080133;23;20232;-77
2022/01/19 09:51:54;;;;;;;8.93;3.67;;;;;;;0.14;65.27;62015.31;6081743;23;20271;-77
2022/01/19 09:54:25;;;;;;;7.05;4.43;;;;;;;-0.16;65.24;61985.59;6081479;23;20524;-77
2022/01/19 09:56:53;;;;;;;5.18;3.47;;;;;;;-0.09;65.32;62002.25;6080215;23;20169;-78
2022/01/19 09:59:20;;;;;;;2.80;2.55;;;;;;;0.09;64.87;62010.69;6080404;23;20207;-77
2022/01/19 10:01:52;;;;;;;8.48;3.70;;;;;;;0.07;65.39;62008.63;6081372;23;20204;-77
2022/01/19 10:04:22;;;;;;;8.68;3.72;;;;;;;0.37;63.89;62041.38;6082816;23;20192;-78
2022/01/19 10:06:49;;;;;;;6.05;4.18;;;;;;;0.21;63.79;62020.50;6080434;23;20172;-76
2022/01/19 10:09:29;;;;;;;2.40;2.30;;;;;;;0.06;63.60;62002.63;6079327;23;20197;-76
2022/01/19 10:17:39;;;;;;;8.63;3.13;;;;;;;0.14;64.29;62015.81;6079406;23;20164;-77
2022/01/19 10:20:19;;;;;;;10.07;4.70;;;;;;;0.01;65.21;62002.50;6079245;23;20199;-77
2022/01/19 10:22:46;;;;;;;4.20;3.28;;;;;;;0.24;64.46;62026.09;6079316;23;20212;-77
2022/01/19 10:25:15;;;;;;;6.47;3.78;;;;;;;0.07;64.63;62005.63;6078518;23;20210;-76
2022/01/19 10:27:45;;;;;;;3.60;3.35;;;;;;;0.06;64.67;62010.13;6078988;23;20220;-76
2022/01/19 10:30:24;;;;;;;6.82;3.60;;;;;;;0.28;64.61;62034.66;6079015;23;20197;-77
2022/01/19 10:32:56;;;;;;;6.85;3.65;;;;;;;0.39;64.23;62046.47;6079610;23;20436;-76
2022/01/19 10:35:29;;;;;;;8.65;4.50;;;;;;;0.48;64.24;62050.16;6078822;23;20216;-76
2022/01/19 10:38:24;;;;;;;8.55;4.47;;;;;;;0.82;62.80;62088.03;6078110;23;20181;-75
2022/01/19 10:41:07;;;;;;;12.90;4.00;;;;;;;0.83;62.29;62084.06;6064290;23;20588;-76
2022/01/19 10:43:37;;;;;;;6.68;4.03;;;;;;;0.40;63.12;62037.47;6077563;23;20472;-75
2022/01/19 10:46:27;;;;;;;4.82;3.08;;;;;;;0.10;64.81;62006.72;6078475;23;20188;-75
2022/01/19 10:49:02;;;;;;;7.22;4.80;;;;;;;0.39;65.01;62040.94;6077972;23;20213;-76
2022/01/19 10:51:34;;;;;;;10.20;4.95;;;;;;;0.58;64.56;62060.94;6077402;23;20187;-76
2022/01/19 10:54:25;;;;;;;4.38;3.97;;;;;;;0.93;62.17;62093.81;6078164;23;20175;-77
2022/01/19 10:56:57;;;;;;;5.30;3.40;;;;;;;0.94;61.96;62100.34;6074973;23;20381;-77
2022/01/19 10:59:28;;;;;;;13.43;4.10;;;;;;;0.80;62.63;62080.47;6078268;23;20354;-77
2022/01/19 11:01:58;;;;;;;8.18;5.28;;;;;;;0.78;62.40;62081.44;6077310;23;20204;-77
2022/01/19 11:04:31;;;;;;;10.90;5.22;;;;;;;0.49;62.90;62053.69;6078538;23;20411;-76
2022/01/19 11:07:02;;;;;;;6.45;3.78;;;;;;;0.47;63.28;62049.13;6077595;23;20177;-76
2022/01/19 11:09:30;;;;;;;11.80;2.90;;;;;;;0.39;63.11;62038.94;6077131;23;20201;-76
2022/01/19 11:12:02;;;;;;;6.07;4.38;;;;;;;0.27;63.52;62034.16;6076725;23;20173;-76
2022/01/19 11:14:29;;;;;;;6.20;4.70;;;;;;;0.34;63.54;62033.31;6077425;23;20192;-76
2022/01/19 11:16:56;;;;;;;4.32;3.78;;;;;;;0.51;63.36;62053.75;6077969;23;20176;-76
2022/01/19 11:19:24;;;;;;;4.97;3.60;;;;;;;0.44;63.01;62041.06;6076626;23;20184;-77
2022/01/19 11:22:04;;;;;;;2.75;2.28;;;;;;;0.36;62.86;62030.34;6076844;23;20260;-76
2022/01/19 11:24:42;;;;;;;8.18;4.35;;;;;;;0.69;62.41;62067.19;6077664;23;20519;-77
2022/01/19 11:27:11;;;;;;;6.70;4.15;;;;;;;0.80;62.13;62083.50;6077242;23;20504;-76
2022/01/19 11:29:40;;;;;;;4.80;3.38;;;;;;;0.93;61.53;62099.31;6077498;23;20201;-76
2022/01/19 11:32:16;;;;;;;3.70;3.22;;;;;;;0.69;62.31;62066.69;6077214;23;20197;-75
2022/01/19 11:34:47;;;;;;;5.75;3.88;;;;;;;1.09;60.56;62112.72;6077522;23;20199;-76
2022/01/19 11:37:15;;;;;;;4.82;3.63;;;;;;;1.00;60.42;62101.50;6076083;23;20204;-76
2022/01/19 11:40:06;;;;;;;2.85;2.20;;;;;;;0.89;61.60;62092.72;6076521;23;20197;-77
2022/01/19 11:42:35;;;;;;;11.27;5.78;;;;;;;0.97;62.89;62097.91;6077115;23;20217;-76
2022/01/19 11:45:04;;;;;;;8.25;4.82;;;;;;;1.09;62.70;62110.22;6077978;23;20196;-75
2022/01/19 11:47:31;;;;;;;9.48;5.50;;;;;;;0.91;62.82;62091.75;6077407;23;20410;-75
2022/01/19 11:50:01;;;;;;;7.68;5.32;;;;;;;1.19;62.48;62126.00;6078248;23;20524;-76
2022/01/19 11:53:05;;;;;;;13.18;5.13;;;;;;;1.04;63.69;62103.09;6079060;23;20165;-76
2022/01/19 11:55:33;;;;;;;6.43;5.20;;;;;;;0.90;63.63;62093.75;6083465;23;20260;-75
2022/01/19 11:58:15;;;;;;;12.50;5.75;;;;;;;0.99;63.88;62108.00;6084122;23;20173;-75
2022/01/19 12:00:44;;;;;;;8.43;4.93;;;;;;;1.13;63.67;62116.81;6077761;23;20482;-76
2022/01/19 12:03:20;;;;;;;7.43;4.82;;;;;;;1.13;62.85;62114.31;6079239;23;20244;-76
2022/01/19 12:05:50;;;;;;;11.48;4.72;;;;;;;1.37;61.87;62141.44;6082428;23;20196;-76
2022/01/19 12:08:29;;;;;;;5.35;4.85;;;;;;;1.56;60.70;62158.44;6080329;23;20216;-75
2022/01/19 12:10:59;;;;;;;9.60;5.78;;;;;;;1.45;61.78;62146.63;6079840;23;20196;-77
2022/01/19 12:13:40;;;;;;;9.82;6.60;;;;;;;1.47;62.53;62151.69;6078581;23;20173;-76
2022/01/19 12:16:14;;;;;;;9.95;4.93;;;;;;;1.43;61.89;62149.59;6078196;23;20189;-75
2022/01/19 12:18:45;;;;;;;8.35;5.43;;;;;;;1.43;61.21;62142.59;6078345;23;20196;-77
2022/01/19 12:21:15;;;;;;;10.05;6.25;;;;;;;1.64;61.53;62166.13;6080677;23;20169;-77
2022/01/19 12:23:43;;;;;;;14.02;6.20;;;;;;;1.82;60.36;62184.59;6082822;23;20173;-76
2022/01/19 12:26:10;;;;;;;18.25;5.82;;;;;;;2.03;59.59;62208.69;6083369;23;20205;-77
2022/01/19 12:28:48;;;;;;;10.70;5.90;;;;;;;1.90;59.55;62197.84;6085250;23;20184;-77
2022/01/19 12:31:35;;;;;;;5.68;4.30;;;;;;;1.76;60.30;62180.97;6084314;23;20189;-76
2022/01/19 12:34:22;;;;;;;5.50;3.42;;;;;;;1.55;60.25;62157.41;6080723;23;20176;-76
2022/01/19 12:36:52;;;;;;;11.07;5.88;;;;;;;1.39;61.18;62138.50;6089301;23;20253;-76
2022/01/19 12:39:35;;;;;;;7.40;5.35;;;;;;;1.19;62.37;62120.47;6092392;23;20196;-77
2022/01/19 12:42:04;;;;;;;11.15;6.28;;;;;;;1.28;62.43;62132.22;6092145;23;20185;-76
2022/01/19 12:44:50;;;;;;;12.48;6.10;;;;;;;1.45;62.14;62149.66;6092860;23;20197;-77
2022/01/19 12:47:48;;;;;;;16.27;5.72;;;;;;;1.44;62.23;62145.59;6092425;23;20165;-77
2022/01/19 12:50:38;;;;;;;9.13;5.13;;;;;;;1.68;61.75;62178.28;6084660;23;20192;-76
2022/01/19 12:53:21;;;;;;;8.73;5.63;;;;;;;1.43;61.84;62147.63;6090205;23;20177;-77
2022/01/19 12:55:51;;;;;;;10.57;6.88;;;;;;;1.44;62.05;62148.13;6085260;23;20196;-78